Aviation Digital Data Service (ADDS)

Output produced by METARs form (0646 UTC 24 March 2019)
found at http://www.aviationweather.gov/metar/data/
 
KLEW 240556Z AUTO 33007KT 10SM CLR M01/M12 A2989 RMK AO2 SLP138 T10061117 10006 21011 51013 FZRANO
KAUG 240553Z AUTO 29006KT 10SM CLR M01/M13 A2986 RMK AO2 SLP116 T10111128 10006 21017 51019
KAUG 240520Z 2406/2506 29012G20KT P6SM SKC 
     FM240800 27010KT P6SM SKC 
     FM250200 34005KT P6SM BKN070
       
KBGR 240553Z 26006G14KT 10SM CLR M01/M11 A2981 RMK AO2 SLP096 T10061111 10028 21011 51023
KBGR 240520Z 2406/2506 28005KT P6SM SKC 
     FM242000 27010KT P6SM SCT050 
     FM242200 29008KT P6SM VCSH BKN040
       
KBHB 240556Z AUTO 29005G15KT 10SM CLR M01/M09 A2981 RMK AO2 SLP099 T10061094 10033 21006 51027 FZRANO
KBHB 240520Z 2406/2506 30009KT P6SM SKC 
     FM242000 27010KT P6SM SCT050 
     FM242200 29008KT P6SM VCSH BKN040
       
KCAR 240554Z AUTO 30010G18KT 10SM CLR M02/M11 A2964 RMK AO2 SLP048 T10171106 10017 21017 51020
KCAR 240520Z 2406/2506 30013G22KT P6SM SKC 
     FM241600 26009KT P6SM BKN040 
     FM241900 27010G17KT 6SM -SHSN BKN035 
     TEMPO 2420/2422 32015G25KT 1SM -SHSN BLSN OVC018
       
KFVE 240553Z AUTO 30015KT 10SM CLR M03/M11 A2964 RMK AO2 SLP044 60000 T10281111 10006 21033 51021
KFVE 240520Z 2406/2506 31010G20KT P6SM SKC 
     FM241100 26008KT P6SM SCT045 BKN090 
     FM241500 26010G17KT P6SM BKN035 
     FM241800 27013G21KT 6SM -SHSN BKN028 
     TEMPO 2419/2421 33015G25KT 1SM -SHSN BLSN OVC018
       
KIZG 240554Z AUTO 00000KT 10SM CLR M01/M14 A2989 RMK AO2 SLP126 T10061144 10006 21011 51013
KHUL 240553Z AUTO 28008G19KT 10SM CLR M01/M09 A2966 RMK AO2 SLP051 T10061094 10028 21011 51025 TSNO
KHUL 240520Z 2406/2506 30010G20KT P6SM SKC 
     FM241700 27009G19KT P6SM BKN050 
     FM242100 30009G19KT 6SM -SHSN BKN035 
     FM250000 30009KT P6SM SCT100
       
KPWM 240551Z AUTO 24005KT 10SM CLR M01/M12 A2991 RMK AO2 SLP131 T10111117 10022 21011 51019
KPWM 240520Z 2406/2506 28010KT P6SM SKC
       
KPQI 240556Z AUTO 29012G17KT 10SM CLR A2967 RMK AO2 SLPNO 51020 FZRANO $
KPQI 240520Z 2406/2506 29012G22KT P6SM SKC 
     FM241630 26009KT P6SM BKN040 
     FM241900 27010G17KT 6SM -SHSN BKN035 
     TEMPO 2420/2422 32015G25KT 1SM -SHSN BLSN OVC018
       
KRKD 240556Z AUTO 29012G17KT 10SM CLR M01/M11 A2984 RMK AO2 SLP107 T10061106 10017 21017 51023 FZRANO
KRKD 240520Z 2406/2506 28011G21KT P6SM SKC 
     FM240800 26008KT P6SM SKC 
     FM242300 VRB04KT P6SM BKN100
       
KSFM 240556Z AUTO 27011KT 10SM CLR 00/M12 A2993 RMK AO2 SLP139 6//// T00001122 10006 20000 51018 FZRANO PNO $
KWVL 240556Z AUTO 30008G21KT 10SM CLR M01/M12 A2983 RMK AO2 SLP130 T10061117 10000 21011 51020 FZRANO
KIWI 240553Z AUTO 00000KT 10SM CLR M02/M11 A2990 RMK AO2 SLP124 T10171111 10017 21017 51021